Time;durP1;ratioP1;P1;durP2;ratioP2;P2;SDS_P1;SDS_P2;PMS_P1;PMS_P2;Temp;Humidity;BMP_temperature;BMP_pressure;BME280_temperature;BME280_humidity;BME280_pressure;Samples;Min_cycle;Max_cycle;Signal;HPM_P1;HPM_P2
2023/09/06 00:01:46;;;;;;;16.33;14.40;;;22.20;99.90;;;;;;6130324;23;20009;-90
2023/09/06 00:04:12;;;;;;;16.92;15.32;;;22.30;99.90;;;;;;6081575;23;20013;-92
2023/09/06 00:06:37;;;;;;;18.08;16.35;;;22.30;99.90;;;;;;6082159;23;20017;-92
2023/09/06 00:09:04;;;;;;;18.88;17.13;;;22.30;99.90;;;;;;6106265;23;20018;-90
2023/09/06 00:11:30;;;;;;;20.83;16.63;;;22.40;99.90;;;;;;6105937;23;20031;-90
2023/09/06 00:13:55;;;;;;;19.80;17.33;;;22.50;99.90;;;;;;6106043;23;20052;-90
2023/09/06 00:16:21;;;;;;;17.05;15.43;;;22.60;99.90;;;;;;6082644;23;20018;-91
2023/09/06 00:18:47;;;;;;;17.30;15.60;;;22.70;99.90;;;;;;6081761;23;20018;-92
2023/09/06 00:21:12;;;;;;;17.85;16.13;;;22.70;99.90;;;;;;6082600;23;20323;-91
2023/09/06 00:23:40;;;;;;;17.75;16.05;;;22.70;99.90;;;;;;6057658;23;20164;-91
2023/09/06 00:26:08;;;;;;;16.65;15.05;;;22.70;99.90;;;;;;6059299;23;20524;-91
2023/09/06 00:28:33;;;;;;;16.77;15.18;;;22.70;99.90;;;;;;6105476;23;20109;-91
2023/09/06 00:30:59;;;;;;;17.85;16.00;;;22.70;99.90;;;;;;6082153;23;20052;-89
2023/09/06 00:33:33;;;;;;;17.70;15.82;;;22.70;99.90;;;;;;6081929;23;20009;-89
2023/09/06 00:36:02;;;;;;;17.43;15.73;;;22.70;99.90;;;;;;6105586;23;20113;-89
2023/09/06 00:38:28;;;;;;;18.98;15.20;;;22.60;99.90;;;;;;6106909;23;20018;-88
2023/09/06 00:40:54;;;;;;;16.92;15.32;;;22.00;99.90;;;;;;6131303;23;20020;-90
2023/09/06 00:43:20;;;;;;;18.35;16.52;;;22.50;99.90;;;;;;6082123;23;20398;-92
2023/09/06 00:45:50;;;;;;;16.13;14.55;;;22.40;99.90;;;;;;6129373;23;20017;-91
2023/09/06 00:48:25;;;;;;;16.90;15.20;;;22.40;99.90;;;;;;6105687;23;20752;-91
2023/09/06 00:50:56;;;;;;;15.43;14.02;;;22.40;99.90;;;;;;6130006;23;20017;-88
2023/09/06 00:53:23;;;;;;;16.00;14.50;;;22.40;99.90;;;;;;6081797;23;20072;-89
2023/09/06 00:55:50;;;;;;;15.90;14.35;;;22.30;99.90;;;;;;6105404;23;20043;-86
2023/09/06 00:58:18;;;;;;;16.33;14.68;;;22.30;99.90;;;;;;6105862;23;20024;-90
2023/09/06 01:00:45;;;;;;;17.00;15.45;;;22.30;99.90;;;;;;6106009;23;20010;-93
2023/09/06 01:03:12;;;;;;;16.55;14.70;;;22.30;99.90;;;;;;6106040;23;20014;-87
2023/09/06 01:05:49;;;;;;;17.25;15.65;;;22.30;99.90;;;;;;6105084;23;20009;-88
2023/09/06 01:08:21;;;;;;;18.38;15.95;;;22.30;99.90;;;;;;6104297;23;20108;-91
2023/09/06 01:10:47;;;;;;;16.92;15.43;;;22.20;99.90;;;;;;6105722;23;20048;-89
2023/09/06 01:13:13;;;;;;;18.17;16.38;;;22.10;99.90;;;;;;6082863;23;20014;-89
2023/09/06 01:15:44;;;;;;;17.98;16.00;;;22.10;99.90;;;;;;6105746;23;20033;-89
2023/09/06 01:18:17;;;;;;;17.23;15.50;;;22.10;99.90;;;;;;6105676;23;20025;-90
2023/09/06 01:20:53;;;;;;;17.40;15.80;;;22.10;99.90;;;;;;6081804;23;20442;-89
2023/09/06 01:23:49;;;;;;;17.30;15.60;;;22.10;99.90;;;;;;6105655;23;20024;-92
2023/09/06 01:26:15;;;;;;;18.35;16.10;;;22.10;99.90;;;;;;6127225;23;20141;-92
2023/09/06 01:28:41;;;;;;;16.48;14.88;;;22.00;99.90;;;;;;6081387;23;20028;-91
2023/09/06 01:31:07;;;;;;;17.60;15.85;;;22.00;99.90;;;;;;6057834;23;20013;-90
2023/09/06 01:33:33;;;;;;;16.73;15.02;;;22.00;99.90;;;;;;6057310;23;20020;-88
2023/09/06 01:35:58;;;;;;;17.42;15.73;;;22.00;99.90;;;;;;6106100;23;20014;-91
2023/09/06 01:38:27;;;;;;;17.65;15.95;;;22.00;99.90;;;;;;6105305;23;20017;-93
2023/09/06 01:40:53;;;;;;;17.40;15.43;;;21.90;99.90;;;;;;6129498;23;20021;-88
2023/09/06 01:43:19;;;;;;;18.67;16.85;;;21.90;99.90;;;;;;6130800;23;20009;-88
2023/09/06 01:45:48;;;;;;;19.25;17.23;;;21.90;99.90;;;;;;6081237;23;20473;-88
2023/09/06 01:48:14;;;;;;;19.65;17.65;;;21.80;99.90;;;;;;6105217;23;20017;-89
2023/09/06 01:50:41;;;;;;;17.88;15.90;;;21.80;99.90;;;;;;6081119;23;20049;-89
2023/09/06 01:53:07;;;;;;;19.13;17.33;;;21.80;99.90;;;;;;6105684;23;20370;-88
2023/09/06 01:55:33;;;;;;;16.50;14.90;;;21.80;99.90;;;;;;6082401;23;20044;-89
2023/09/06 01:57:58;;;;;;;15.90;14.38;;;21.70;99.90;;;;;;6081287;23;20020;-89
2023/09/06 02:00:28;;;;;;;15.45;14.00;;;21.50;99.90;;;;;;6081125;23;20013;-92
2023/09/06 02:02:57;;;;;;;14.35;12.95;;;21.20;99.90;;;;;;6082536;23;20009;-90
2023/09/06 02:05:23;;;;;;;16.48;15.00;;;21.10;99.90;;;;;;6105452;23;20010;-89
2023/09/06 02:07:49;;;;;;;20.30;17.83;;;21.10;99.90;;;;;;6081226;23;20061;-90
2023/09/06 02:10:16;;;;;;;20.15;16.85;;;21.20;99.90;;;;;;6081071;23;20049;-88
2023/09/06 02:12:42;;;;;;;17.70;15.88;;;21.20;99.90;;;;;;6081651;23;20021;-89
2023/09/06 02:15:14;;;;;;;17.10;15.23;;;21.20;99.90;;;;;;6106339;23;20021;-90
2023/09/06 02:17:42;;;;;;;19.95;17.95;;;21.10;99.90;;;;;;6083473;23;20032;-87
2023/09/06 02:20:21;;;;;;;21.13;18.98;;;21.10;99.90;;;;;;6103591;23;20018;-90
2023/09/06 02:22:52;;;;;;;19.40;16.98;;;21.20;99.90;;;;;;6059721;23;20024;-91
2023/09/06 02:25:23;;;;;;;18.23;16.40;;;21.20;99.90;;;;;;6128286;23;20013;-87
2023/09/06 02:27:49;;;;;;;23.15;20.77;;;21.30;99.90;;;;;;6105090;23;20041;-90
2023/09/06 02:30:15;;;;;;;22.02;19.83;;;21.20;99.90;;;;;;6104917;23;20083;-91
2023/09/06 02:32:41;;;;;;;20.48;18.38;;;21.30;99.90;;;;;;6079574;23;20025;-87
2023/09/06 02:35:07;;;;;;;18.92;17.13;;;21.30;99.90;;;;;;6080188;23;20104;-88
2023/09/06 02:37:36;;;;;;;19.10;17.23;;;21.30;99.90;;;;;;6105783;23;20324;-91
2023/09/06 02:40:14;;;;;;;19.65;17.75;;;21.40;99.90;;;;;;6104477;23;20084;-88
2023/09/06 02:42:44;;;;;;;19.08;17.17;;;21.30;99.90;;;;;;6105175;23;20016;-92
2023/09/06 02:45:13;;;;;;;12.13;11.02;;;21.30;99.90;;;;;;6105400;23;20017;-88
2023/09/06 02:47:52;;;;;;;11.45;10.35;;;21.00;99.90;;;;;;6105173;23;20052;-88
2023/09/06 02:50:23;;;;;;;11.13;10.13;;;20.70;99.90;;;;;;6104787;23;20100;-89
2023/09/06 02:52:53;;;;;;;10.48;9.57;;;20.40;99.90;;;;;;6104512;23;20048;-88
2023/09/06 02:55:19;;;;;;;12.52;11.43;;;20.40;99.90;;;;;;6082238;23;20018;-89
2023/09/06 02:57:44;;;;;;;15.77;14.30;;;20.40;99.90;;;;;;6107355;23;20017;-92
2023/09/06 03:00:22;;;;;;;16.27;14.77;;;20.60;99.90;;;;;;6059104;23;20032;-90
2023/09/06 03:02:48;;;;;;;16.30;14.57;;;20.70;99.90;;;;;;6106474;23;20021;-93
2023/09/06 03:05:17;;;;;;;14.85;13.35;;;20.90;99.90;;;;;;6058972;23;20010;-89
2023/09/06 03:07:48;;;;;;;13.32;12.02;;;21.00;99.90;;;;;;6083971;23;20016;-87
2023/09/06 03:10:15;;;;;;;13.52;12.13;;;21.10;99.90;;;;;;6130867;23;20478;-91
2023/09/06 03:12:43;;;;;;;13.98;11.93;;;21.10;99.90;;;;;;6082579;23;20029;-89
2023/09/06 03:15:10;;;;;;;17.80;14.57;;;21.00;99.90;;;;;;6082454;23;20017;-89
2023/09/06 03:17:36;;;;;;;15.63;14.07;;;21.00;99.90;;;;;;6059746;23;20022;-90
2023/09/06 03:22:50;;;;;;;13.73;12.43;;;20.90;99.90;;;;;;6131121;23;20482;-90
2023/09/06 03:25:16;;;;;;;12.77;11.57;;;20.90;99.90;;;;;;6106424;23;20036;-88
2023/09/06 03:27:42;;;;;;;13.68;11.57;;;20.90;99.90;;;;;;6083484;23;20017;-87
2023/09/06 03:30:09;;;;;;;13.38;11.98;;;20.90;99.90;;;;;;6106525;23;20025;-91
2023/09/06 03:32:35;;;;;;;12.05;10.98;;;20.80;99.90;;;;;;6082634;23;20742;-92
2023/09/06 03:35:04;;;;;;;13.40;12.20;;;20.90;99.90;;;;;;6106382;23;20100;-92
2023/09/06 03:37:30;;;;;;;11.77;10.68;;;20.50;99.90;;;;;;6082519;23;20068;-91
2023/09/06 03:39:56;;;;;;;12.70;11.50;;;20.80;99.90;;;;;;6105126;23;20101;-89
2023/09/06 03:42:23;;;;;;;12.82;11.52;;;20.80;99.90;;;;;;6056943;23;20014;-90
2023/09/06 03:44:49;;;;;;;13.38;11.70;;;20.70;99.90;;;;;;6081876;23;20017;-88
2023/09/06 03:47:16;;;;;;;13.85;12.57;;;20.70;99.90;;;;;;6129704;23;20028;-91
2023/09/06 03:49:43;;;;;;;13.98;12.68;;;20.80;99.90;;;;;;6105115;23;20021;-89
2023/09/06 03:52:10;;;;;;;13.25;11.85;;;20.70;99.90;;;;;;6104693;23;20017;-90
2023/09/06 03:54:37;;;;;;;14.70;11.63;;;20.80;99.90;;;;;;6104890;23;20014;-90
2023/09/06 03:57:12;;;;;;;11.70;10.52;;;20.80;99.90;;;;;;6104638;23;20022;-90
2023/09/06 03:59:40;;;;;;;12.30;11.07;;;20.70;99.90;;;;;;6104827;23;20014;-90
2023/09/06 04:02:13;;;;;;;12.35;11.18;;;20.80;99.90;;;;;;6104467;23;20017;-88
2023/09/06 04:04:39;;;;;;;13.95;12.65;;;20.80;99.90;;;;;;6082385;23;20439;-91
2023/09/06 04:07:07;;;;;;;12.27;11.15;;;20.80;99.90;;;;;;6104290;23;20014;-89
2023/09/06 04:09:42;;;;;;;13.70;12.40;;;20.80;99.90;;;;;;6081474;23;20025;-91
2023/09/06 04:12:08;;;;;;;13.55;12.15;;;20.30;99.90;;;;;;6082445;23;20013;-89
2023/09/06 04:14:38;;;;;;;12.63;11.32;;;20.70;99.90;;;;;;6103902;23;20346;-92
2023/09/06 04:17:06;;;;;;;13.82;12.40;;;20.70;99.90;;;;;;6081599;23;20049;-89
2023/09/06 04:19:33;;;;;;;13.60;11.85;;;20.70;99.90;;;;;;6104568;23;20092;-92
2023/09/06 04:22:01;;;;;;;12.93;11.73;;;20.70;99.90;;;;;;6105365;23;20017;-88
2023/09/06 04:24:27;;;;;;;11.77;10.57;;;20.70;99.90;;;;;;6106455;23;20013;-90
2023/09/06 04:26:53;;;;;;;14.80;11.57;;;20.70;99.90;;;;;;6081912;23;20114;-88
2023/09/06 04:29:19;;;;;;;13.80;12.00;;;20.70;99.90;;;;;;6106046;23;20108;-88
2023/09/06 04:31:49;;;;;;;12.10;10.93;;;20.70;99.90;;;;;;6106145;23;20028;-91
2023/09/06 04:34:15;;;;;;;12.57;11.32;;;20.70;99.90;;;;;;6106409;23;20013;-91
2023/09/06 04:36:40;;;;;;;12.45;11.18;;;20.50;99.90;;;;;;6081375;23;20443;-91
2023/09/06 04:39:07;;;;;;;12.75;11.27;;;20.60;99.90;;;;;;6104869;23;20111;-89
2023/09/06 04:41:39;;;;;;;13.15;11.43;;;20.60;99.90;;;;;;6107158;23;20083;-89
2023/09/06 04:44:05;;;;;;;13.10;11.57;;;20.60;99.90;;;;;;6081611;23;20010;-88
2023/09/06 04:46:31;;;;;;;17.02;12.77;;;20.50;99.90;;;;;;6106041;23;20072;-92
2023/09/06 04:48:58;;;;;;;11.57;10.48;;;20.50;99.90;;;;;;6081572;23;20014;-88
2023/09/06 04:51:24;;;;;;;13.80;11.27;;;20.40;99.90;;;;;;6081254;23;20022;-88
2023/09/06 04:53:49;;;;;;;12.55;11.27;;;20.50;99.90;;;;;;6106072;23;20066;-90
2023/09/06 04:56:18;;;;;;;12.02;10.85;;;20.50;99.90;;;;;;6081200;23;20053;-87
2023/09/06 04:58:45;;;;;;;11.63;10.38;;;20.50;99.90;;;;;;6105850;23;20017;-92
2023/09/06 05:01:11;;;;;;;12.23;11.02;;;20.40;99.90;;;;;;6057876;23;20084;-90
2023/09/06 05:03:38;;;;;;;12.30;10.38;;;20.40;99.90;;;;;;6105350;23;20017;-90
2023/09/06 05:06:03;;;;;;;12.23;11.02;;;20.50;99.90;;;;;;6104556;23;20045;-89
2023/09/06 05:08:30;;;;;;;11.55;10.45;;;20.40;99.90;;;;;;6081160;23;20013;-88
2023/09/06 05:10:56;;;;;;;11.18;10.07;;;20.40;99.90;;;;;;6057464;23;20101;-89
2023/09/06 05:13:22;;;;;;;11.85;10.55;;;20.40;99.90;;;;;;6105613;23;20079;-90
2023/09/06 05:15:48;;;;;;;12.80;10.20;;;20.40;99.90;;;;;;6081340;23;20052;-90
2023/09/06 05:18:14;;;;;;;11.70;9.27;;;20.50;99.90;;;;;;6081139;23;20316;-88
2023/09/06 05:20:41;;;;;;;11.10;10.05;;;20.50;99.90;;;;;;6080856;23;20021;-88
2023/09/06 05:23:17;;;;;;;11.13;10.07;;;20.50;99.90;;;;;;6104246;23;20546;-90
2023/09/06 05:25:43;;;;;;;11.15;10.02;;;20.40;99.90;;;;;;6106059;23;20009;-89
2023/09/06 05:28:12;;;;;;;10.75;9.75;;;20.60;99.90;;;;;;6105079;23;20009;-88
2023/09/06 05:30:45;;;;;;;10.95;9.73;;;20.60;99.90;;;;;;6104742;23;20081;-90
2023/09/06 05:33:11;;;;;;;10.75;9.65;;;20.60;99.90;;;;;;6104699;23;20389;-88
2023/09/06 05:35:37;;;;;;;10.75;9.75;;;20.70;99.90;;;;;;6103947;23;20100;-89
2023/09/06 05:38:06;;;;;;;11.40;10.30;;;20.90;99.90;;;;;;6101533;23;20025;-88
2023/09/06 05:40:34;;;;;;;12.95;9.98;;;20.70;99.90;;;;;;6104382;23;20014;-88
2023/09/06 05:43:00;;;;;;;11.85;10.23;;;20.70;99.90;;;;;;6081293;23;20552;-90
2023/09/06 05:45:26;;;;;;;11.30;9.90;;;20.80;99.90;;;;;;6129411;23;20060;-90
2023/09/06 05:47:53;;;;;;;12.32;11.07;;;20.70;99.90;;;;;;6057576;23;20020;-89
2023/09/06 05:50:19;;;;;;;11.65;10.18;;;20.90;99.90;;;;;;6103874;23;20017;-90
2023/09/06 05:52:45;;;;;;;10.57;9.57;;;20.80;99.90;;;;;;6081339;23;20056;-89
2023/09/06 05:55:10;;;;;;;11.23;10.02;;;20.90;99.90;;;;;;6104646;23;20105;-88
2023/09/06 05:57:37;;;;;;;11.73;10.60;;;21.00;99.90;;;;;;6104793;23;20064;-88
2023/09/06 06:00:12;;;;;;;11.98;10.77;;;21.10;99.90;;;;;;6104482;23;20022;-91
2023/09/06 06:02:50;;;;;;;10.38;9.27;;;21.00;99.90;;;;;;6124666;23;20068;-90
2023/09/06 06:05:18;;;;;;;10.02;9.02;;;21.10;99.90;;;;;;6105256;23;20014;-91
2023/09/06 06:07:44;;;;;;;12.80;9.25;;;21.20;99.90;;;;;;6105281;23;20014;-92
2023/09/06 06:10:10;;;;;;;10.85;9.75;;;21.30;99.90;;;;;;6080913;23;20013;-90
2023/09/06 06:12:37;;;;;;;10.45;9.45;;;21.40;99.90;;;;;;6080780;23;20014;-92
2023/09/06 06:15:04;;;;;;;11.70;9.93;;;21.40;99.90;;;;;;6104600;23;20063;-88
2023/09/06 06:17:41;;;;;;;11.07;9.98;;;21.60;99.90;;;;;;6059802;23;20018;-89
2023/09/06 06:20:13;;;;;;;9.85;8.85;;;21.70;99.90;;;;;;6105963;23;20020;-90
2023/09/06 06:22:43;;;;;;;9.50;8.50;;;21.30;99.90;;;;;;6106437;23;20453;-91
2023/09/06 06:25:17;;;;;;;9.30;8.40;;;21.80;99.90;;;;;;6080460;23;20010;-91
2023/09/06 06:27:43;;;;;;;10.45;9.35;;;21.90;99.90;;;;;;6104461;23;20435;-92
2023/09/06 06:30:11;;;;;;;10.10;9.07;;;21.90;99.90;;;;;;6103665;23;20080;-86
2023/09/06 06:32:36;;;;;;;9.70;8.45;;;22.10;99.90;;;;;;6080615;23;20043;-89
2023/09/06 06:35:06;;;;;;;11.02;9.00;;;22.10;99.90;;;;;;6102189;23;20025;-87
2023/09/06 06:37:32;;;;;;;10.55;8.63;;;22.20;99.90;;;;;;6057582;23;20018;-88
2023/09/06 06:39:58;;;;;;;12.88;9.70;;;22.30;99.90;;;;;;6105293;23;20489;-88
2023/09/06 06:42:25;;;;;;;9.13;8.23;;;22.40;99.90;;;;;;6056119;23;20447;-88
2023/09/06 06:44:51;;;;;;;9.30;8.40;;;22.40;99.90;;;;;;6104436;23;20013;-92
2023/09/06 06:47:20;;;;;;;8.65;7.78;;;22.60;99.90;;;;;;6078781;23;20088;-92
2023/09/06 06:49:45;;;;;;;8.40;7.60;;;22.70;99.90;;;;;;6103737;23;20351;-90
2023/09/06 06:52:11;;;;;;;8.00;7.20;;;22.70;99.90;;;;;;6056761;23;20025;-87
2023/09/06 06:54:40;;;;;;;8.63;7.70;;;22.70;99.90;;;;;;6105080;23;20024;-88
2023/09/06 06:57:07;;;;;;;8.45;7.45;;;22.80;99.90;;;;;;6105668;23;20021;-90
2023/09/06 06:59:35;;;;;;;9.25;8.35;;;23.00;99.90;;;;;;6079906;23;20343;-90
2023/09/06 07:02:04;;;;;;;9.55;7.63;;;23.10;99.90;;;;;;6082904;23;20092;-90
2023/09/06 07:04:31;;;;;;;8.82;7.80;;;23.20;99.90;;;;;;6082623;23;20017;-90
2023/09/06 07:06:57;;;;;;;8.27;7.30;;;23.30;99.90;;;;;;6058805;23;20009;-92
2023/09/06 07:09:22;;;;;;;7.65;6.90;;;23.40;99.90;;;;;;6082438;23;20100;-91
2023/09/06 07:11:49;;;;;;;7.35;6.60;;;23.40;99.90;;;;;;6082341;23;20458;-91
2023/09/06 07:14:15;;;;;;;7.70;6.53;;;23.60;99.90;;;;;;6081424;23;20024;-90
2023/09/06 07:16:41;;;;;;;7.88;7.07;;;23.60;99.90;;;;;;6058728;23;20017;-91
2023/09/06 07:19:06;;;;;;;7.88;6.65;;;23.80;99.90;;;;;;6082469;23;20049;-91
2023/09/06 07:21:32;;;;;;;7.65;6.53;;;23.80;99.90;;;;;;6106861;23;20074;-92
2023/09/06 07:23:58;;;;;;;6.90;6.18;;;23.80;99.90;;;;;;6082261;23;20339;-88
2023/09/06 07:26:24;;;;;;;8.38;6.03;;;23.90;99.90;;;;;;6081013;23;20088;-92
2023/09/06 07:28:50;;;;;;;6.22;5.63;;;24.00;99.90;;;;;;6081785;23;20021;-89
2023/09/06 07:31:15;;;;;;;5.88;5.25;;;24.20;99.90;;;;;;6081513;23;20424;-90
2023/09/06 07:33:42;;;;;;;6.78;5.85;;;24.30;99.90;;;;;;6082172;23;20180;-91
2023/09/06 07:36:08;;;;;;;5.63;5.13;;;24.50;99.90;;;;;;6104117;23;20079;-89
2023/09/06 07:38:34;;;;;;;7.35;5.47;;;24.50;99.90;;;;;;6078893;23;20419;-89
2023/09/06 07:41:06;;;;;;;6.45;4.95;;;24.70;99.90;;;;;;6126702;23;20010;-92
2023/09/06 07:43:33;;;;;;;5.88;5.28;;;24.70;99.90;;;;;;6105667;23;20020;-90
2023/09/06 07:45:59;;;;;;;5.45;4.40;;;24.70;99.90;;;;;;6105930;23;20026;-90
2023/09/06 07:48:31;;;;;;;5.82;4.70;;;24.90;99.90;;;;;;6081462;23;20013;-89
2023/09/06 07:51:03;;;;;;;5.72;4.10;;;25.00;99.90;;;;;;6105280;23;20496;-90
2023/09/06 07:53:28;;;;;;;7.10;4.65;;;25.10;99.90;;;;;;6082340;23;20044;-90
2023/09/06 07:55:56;;;;;;;4.90;4.13;;;25.20;99.90;;;;;;6080786;23;20020;-90
2023/09/06 07:58:22;;;;;;;6.53;4.50;;;25.30;99.90;;;;;;6104483;23;20020;-92
2023/09/06 08:00:49;;;;;;;7.22;4.00;;;25.40;99.90;;;;;;6105719;23;20394;-88
2023/09/06 08:03:15;;;;;;;4.45;3.50;;;25.50;99.90;;;;;;6105667;23;20022;-89
2023/09/06 08:05:41;;;;;;;4.65;3.30;;;25.60;99.90;;;;;;6104308;23;20022;-91
2023/09/06 08:08:09;;;;;;;3.88;3.47;;;25.80;99.90;;;;;;6105411;23;20088;-91
2023/09/06 08:10:41;;;;;;;4.10;3.30;;;26.00;99.90;;;;;;6105586;23;20028;-89
2023/09/06 08:13:08;;;;;;;3.67;3.00;;;26.10;99.90;;;;;;6104455;23;20020;-89
2023/09/06 08:15:38;;;;;;;4.50;3.00;;;26.20;99.90;;;;;;6105413;23;20025;-90
2023/09/06 08:18:04;;;;;;;5.93;3.55;;;26.30;99.90;;;;;;6129648;23;20068;-88
2023/09/06 08:20:31;;;;;;;5.15;3.40;;;26.40;99.90;;;;;;6105338;23;20025;-90
2023/09/06 08:22:57;;;;;;;4.50;3.10;;;26.50;99.90;;;;;;6105599;23;20009;-89
2023/09/06 08:25:23;;;;;;;3.95;3.20;;;26.60;99.90;;;;;;6129375;23;20092;-89
2023/09/06 08:27:50;;;;;;;3.08;2.78;;;26.50;99.90;;;;;;6086467;23;20009;-89
2023/09/06 08:30:17;;;;;;;4.22;3.03;;;26.60;99.90;;;;;;6111659;23;20099;-92
2023/09/06 08:32:48;;;;;;;4.70;2.83;;;26.70;99.90;;;;;;6081026;23;20093;-90
2023/09/06 08:35:14;;;;;;;4.15;2.90;;;26.70;99.90;;;;;;6103984;23;20506;-90
2023/09/06 08:37:42;;;;;;;3.65;2.60;;;26.90;99.90;;;;;;6056842;23;20041;-88
2023/09/06 08:40:10;;;;;;;4.60;3.00;;;27.00;99.90;;;;;;6104004;23;20024;-88
2023/09/06 08:42:36;;;;;;;3.33;3.03;;;27.10;99.90;;;;;;6057401;23;20010;-91
2023/09/06 08:45:07;;;;;;;3.65;3.00;;;27.20;99.90;;;;;;6105077;23;20017;-89
2023/09/06 08:47:35;;;;;;;4.55;3.13;;;27.20;99.90;;;;;;6105775;23;20024;-88
2023/09/06 08:50:02;;;;;;;3.00;2.70;;;27.40;99.90;;;;;;6104430;23;20076;-88
2023/09/06 08:52:30;;;;;;;7.57;3.08;;;27.50;99.90;;;;;;6104857;23;20028;-89
2023/09/06 08:54:55;;;;;;;3.08;2.50;;;27.60;99.90;;;;;;6081865;23;20035;-91
2023/09/06 08:57:21;;;;;;;6.13;3.08;;;27.70;99.90;;;;;;6104553;23;20096;-89
2023/09/06 08:59:48;;;;;;;2.70;2.50;;;27.80;99.90;;;;;;6081131;23;20021;-88
2023/09/06 09:02:15;;;;;;;3.58;2.72;;;27.90;99.90;;;;;;6104817;23;20084;-88
2023/09/06 09:04:42;;;;;;;2.92;2.00;;;28.00;99.90;;;;;;6105774;23;20044;-88
2023/09/06 09:07:12;;;;;;;3.05;2.42;;;28.10;99.90;;;;;;6106193;23;20016;-87
2023/09/06 09:09:58;;;;;;;4.25;2.45;;;28.10;99.90;;;;;;6106666;23;20021;-88
2023/09/06 09:12:25;;;;;;;3.95;2.60;;;28.20;99.90;;;;;;6108069;23;20021;-88
2023/09/06 09:14:56;;;;;;;5.95;3.00;;;28.30;99.90;;;;;;6107260;23;20052;-88
2023/09/06 09:17:27;;;;;;;3.78;2.42;;;28.40;99.90;;;;;;6104204;23;20017;-88
2023/09/06 09:19:54;;;;;;;6.45;2.63;;;28.50;99.90;;;;;;6131297;23;20014;-88
2023/09/06 09:22:30;;;;;;;2.72;2.53;;;28.60;99.90;;;;;;6104731;23;20354;-88
2023/09/06 09:25:02;;;;;;;4.55;2.53;;;28.70;99.90;;;;;;6102909;23;20404;-89
2023/09/06 09:27:28;;;;;;;2.63;2.25;;;28.80;99.90;;;;;;6079461;23;20453;-88
2023/09/06 09:29:55;;;;;;;3.22;2.42;;;28.90;99.90;;;;;;6102650;23;20031;-87
2023/09/06 09:32:22;;;;;;;3.30;2.70;;;28.90;99.90;;;;;;6103274;23;20092;-88
2023/09/06 09:34:49;;;;;;;2.80;2.35;;;29.00;99.90;;;;;;6105090;23;20014;-88
2023/09/06 09:37:15;;;;;;;4.32;2.45;;;29.20;99.90;;;;;;6103081;23;20021;-87
2023/09/06 09:39:43;;;;;;;5.82;3.15;;;29.30;99.90;;;;;;6102531;23;20024;-87
2023/09/06 09:42:11;;;;;;;2.72;2.28;;;29.40;99.90;;;;;;6057754;23;20492;-87
2023/09/06 09:44:38;;;;;;;2.95;2.40;;;29.70;99.90;;;;;;6103315;23;20017;-89
2023/09/06 09:47:14;;;;;;;2.80;2.25;;;30.20;99.90;;;;;;6104528;23;20331;-89
2023/09/06 09:49:42;;;;;;;3.80;2.08;;;30.30;99.90;;;;;;6078908;23;20021;-89
2023/09/06 09:52:13;;;;;;;3.22;2.72;;;30.60;99.90;;;;;;6127089;23;20013;-90
2023/09/06 09:54:42;;;;;;;3.22;2.70;;;30.70;99.90;;;;;;6102797;23;20017;-91
2023/09/06 09:57:12;;;;;;;4.13;2.00;;;30.90;99.90;;;;;;6104174;23;20019;-88
2023/09/06 09:59:43;;;;;;;2.92;2.38;;;30.80;99.90;;;;;;6103537;23;20020;-90
2023/09/06 10:02:18;;;;;;;2.70;2.22;;;30.80;99.90;;;;;;6080152;23;20088;-89
2023/09/06 10:04:49;;;;;;;2.40;2.20;;;31.10;99.90;;;;;;6106248;23;20017;-88
2023/09/06 10:07:16;;;;;;;5.45;2.30;;;31.10;99.90;;;;;;6103772;23;20044;-89
2023/09/06 10:09:46;;;;;;;8.85;2.40;;;31.20;99.90;;;;;;6080339;23;20018;-89
2023/09/06 10:12:35;;;;;;;4.00;2.30;;;31.40;99.90;;;;;;6102575;23;20020;-88
2023/09/06 10:15:13;;;;;;;3.08;2.20;;;31.30;99.90;;;;;;6104555;23;20025;-89
2023/09/06 10:17:43;;;;;;;4.40;2.40;;;31.70;99.90;;;;;;6104600;23;20414;-87
2023/09/06 10:20:12;;;;;;;2.65;2.30;;;31.70;98.50;;;;;;6103760;23;20024;-88
2023/09/06 10:22:46;;;;;;;2.80;2.30;;;31.70;91.00;;;;;;6104075;23;20084;-87
2023/09/06 10:25:14;;;;;;;2.60;2.15;;;31.40;69.00;;;;;;6080484;23;20013;-88
2023/09/06 10:27:52;;;;;;;2.55;2.20;;;31.50;70.90;;;;;;6104194;23;20014;-86
2023/09/06 10:30:48;;;;;;;2.65;2.00;;;31.60;59.30;;;;;;6080528;23;20017;-89
2023/09/06 10:33:31;;;;;;;2.53;2.10;;;31.80;55.40;;;;;;6104195;23;20039;-88
2023/09/06 10:35:58;;;;;;;3.08;2.38;;;31.80;43.70;;;;;;6104788;23;20025;-89
2023/09/06 10:38:23;;;;;;;2.40;2.13;;;32.10;67.70;;;;;;6105722;23;20024;-89
2023/09/06 10:40:49;;;;;;;2.40;2.10;;;32.30;50.00;;;;;;6081360;23;20018;-90
2023/09/06 10:43:16;;;;;;;2.92;2.30;;;32.40;28.40;;;;;;6106641;23;20017;-89
2023/09/06 10:46:07;;;;;;;4.43;2.30;;;32.40;7.60;;;;;;6082168;23;20020;-89
2023/09/06 10:48:32;;;;;;;4.72;2.50;;;32.20;1.00;;;;;;6105712;23;20014;-91
2023/09/06 10:51:09;;;;;;;3.03;2.13;;;32.20;1.00;;;;;;6106482;23;20017;-90
2023/09/06 10:53:38;;;;;;;3.65;2.28;;;32.40;1.00;;;;;;6106480;23;20018;-89
2023/09/06 10:56:05;;;;;;;2.78;2.30;;;32.20;1.00;;;;;;6105778;23;20009;-88
2023/09/06 10:58:34;;;;;;;2.88;2.00;;;32.40;1.00;;;;;;6105396;23;20453;-89
2023/09/06 11:01:30;;;;;;;2.70;2.38;;;32.50;1.00;;;;;;6105834;23;20014;-89
2023/09/06 11:03:58;;;;;;;3.55;2.28;;;32.50;1.00;;;;;;6106376;23;20052;-89
2023/09/06 11:06:26;;;;;;;2.38;2.15;;;32.80;1.00;;;;;;6081724;23;20009;-89
2023/09/06 11:08:53;;;;;;;2.60;2.25;;;32.80;1.00;;;;;;6129547;23;20045;-89
2023/09/06 11:11:20;;;;;;;2.22;2.00;;;33.00;1.00;;;;;;6081287;23;20320;-90
2023/09/06 11:13:45;;;;;;;2.53;2.33;;;32.80;1.00;;;;;;6081592;23;20017;-89
2023/09/06 11:16:13;;;;;;;5.13;2.70;;;32.80;1.00;;;;;;6081641;23;20076;-89
2023/09/06 11:18:47;;;;;;;2.53;2.15;;;32.60;1.00;;;;;;6103892;23;20088;-90
2023/09/06 11:21:20;;;;;;;2.25;1.95;;;32.70;1.00;;;;;;6105885;23;20014;-90
2023/09/06 11:23:47;;;;;;;2.30;2.10;;;32.90;1.00;;;;;;6083197;23;20092;-91
2023/09/06 11:26:13;;;;;;;2.25;2.05;;;32.80;1.00;;;;;;6106025;23;20013;-91
2023/09/06 11:28:42;;;;;;;4.25;2.20;;;32.90;1.00;;;;;;6105702;23;20021;-90
2023/09/06 11:31:29;;;;;;;2.50;2.00;;;33.20;1.00;;;;;;6081240;23;20021;-90
2023/09/06 11:34:01;;;;;;;2.35;2.15;;;32.90;1.00;;;;;;6082786;23;20014;-89
2023/09/06 11:36:30;;;;;;;2.85;1.90;;;32.70;1.00;;;;;;6083427;23;20402;-90
2023/09/06 11:39:34;;;;;;;2.47;2.28;;;32.80;1.00;;;;;;6082384;23;20668;-90
2023/09/06 11:41:50;;;;;;;2.60;2.00;;;33.10;1.00;;;;;;6124514;23;20018;-90
2023/09/06 11:44:19;;;;;;;2.60;2.13;;;32.80;1.00;;;;;;6082280;23;20010;-89
2023/09/06 11:46:48;;;;;;;4.40;2.30;;;32.90;1.00;;;;;;6105921;23;20071;-91
2023/09/06 11:49:21;;;;;;;4.45;2.33;;;32.70;1.00;;;;;;6105978;23;20044;-90
2023/09/06 11:51:47;;;;;;;2.30;2.10;;;33.00;1.00;;;;;;6101773;23;20014;-90
2023/09/06 11:54:15;;;;;;;2.05;1.85;;;32.90;1.00;;;;;;6078992;23;20076;-90
2023/09/06 11:56:47;;;;;;;1.88;1.75;;;33.20;1.00;;;;;;6080655;23;20092;-90
2023/09/06 11:59:14;;;;;;;2.00;1.90;;;33.10;1.00;;;;;;6081029;23;20040;-89
2023/09/06 12:01:40;;;;;;;2.22;2.03;;;33.10;99.90;;;;;;6080775;23;20025;-89
2023/09/06 12:04:16;;;;;;;3.45;2.03;;;33.10;99.90;;;;;;6105081;23;20435;-91
2023/09/06 12:06:42;;;;;;;2.45;2.05;;;33.20;1.00;;;;;;6060241;23;20020;-89
2023/09/06 12:09:12;;;;;;;4.05;1.90;;;32.90;99.90;;;;;;6105646;23;20092;-91
2023/09/06 12:11:41;;;;;;;3.35;1.80;;;33.10;99.90;;;;;;6059431;23;20021;-89
2023/09/06 12:14:11;;;;;;;2.08;1.85;;;33.00;99.90;;;;;;6105257;23;20092;-90
2023/09/06 12:16:39;;;;;;;2.35;1.98;;;33.00;99.90;;;;;;6081926;23;20024;-91
2023/09/06 12:19:10;;;;;;;2.20;1.92;;;32.90;99.90;;;;;;6106241;23;20017;-93
2023/09/06 12:21:36;;;;;;;3.00;1.95;;;32.90;99.90;;;;;;6083179;23;20424;-89
2023/09/06 12:24:02;;;;;;;2.95;2.05;;;33.00;99.90;;;;;;6081742;23;20013;-91
2023/09/06 12:26:28;;;;;;;4.20;2.20;;;33.10;99.90;;;;;;6106849;23;20076;-90
2023/09/06 12:28:54;;;;;;;3.00;2.20;;;33.00;99.90;;;;;;6107296;23;20600;-90
2023/09/06 12:31:23;;;;;;;2.83;2.10;;;32.80;99.90;;;;;;6083715;23;20423;-91
2023/09/06 12:33:51;;;;;;;3.17;1.95;;;32.90;99.90;;;;;;6085135;23;20526;-90
2023/09/06 12:36:17;;;;;;;2.13;1.83;;;32.90;99.90;;;;;;6083365;23;20028;-91
2023/09/06 12:38:43;;;;;;;2.28;1.98;;;33.00;99.90;;;;;;6083008;23;20118;-90
2023/09/06 12:41:09;;;;;;;4.35;1.90;;;32.90;99.90;;;;;;6106415;23;20017;-91
2023/09/06 12:43:36;;;;;;;2.63;1.98;;;32.90;99.90;;;;;;6105137;23;20052;-90
2023/09/06 12:46:06;;;;;;;2.90;2.22;;;33.10;99.90;;;;;;6082318;23;20014;-92
2023/09/06 12:48:31;;;;;;;2.95;1.80;;;33.10;99.90;;;;;;6081353;23;20010;-90